Time;durP1;ratioP1;P1;durP2;ratioP2;P2;SDS_P1;SDS_P2;PMS_P1;PMS_P2;Temp;Humidity;BMP_temperature;BMP_pressure;BME280_temperature;BME280_humidity;BME280_pressure;Samples;Min_cycle;Max_cycle;Signal;HPM_P1;HPM_P2
2022/08/20 00:00:52;;;;;;;4.07;3.78;;;27.80;50.80;;;31.63;33.30;101040.41;5114213;28;20047;-9
2022/08/20 00:03:28;;;;;;;;;;;27.80;50.80;;;31.75;32.99;101028.28;5114611;28;20063;-9
2022/08/20 00:06:07;;;;;;;4.10;3.80;;;27.70;50.80;;;31.65;33.32;101037.56;5113664;28;19926;-9
2022/08/20 00:08:35;;;;;;;3.95;3.65;;;27.80;50.70;;;31.68;33.23;101037.22;5113313;28;20047;-9
2022/08/20 00:11:04;;;;;;;4.40;4.00;;;27.80;50.80;;;31.66;33.20;101037.38;5113631;28;20047;-8
2022/08/20 00:13:43;;;;;;;3.85;3.55;;;27.80;50.70;;;31.64;33.13;101043.94;5095615;28;20134;-9
2022/08/20 00:16:11;;;;;;;4.50;4.10;;;27.80;50.70;;;31.64;33.25;101038.53;5113992;28;20046;-9
2022/08/20 00:18:40;;;;;;;4.65;4.25;;;27.70;50.70;;;31.65;33.20;101043.78;5113026;28;20043;-9
2022/08/20 00:21:10;;;;;;;3.97;3.67;;;27.70;50.70;;;31.65;33.50;101041.09;5113516;28;20096;-8
2022/08/20 00:23:42;;;;;;;4.18;3.88;;;27.70;50.70;;;31.63;33.54;101031.47;5113573;28;20043;-9
2022/08/20 00:26:10;;;;;;;4.43;4.03;;;27.70;50.70;;;31.62;33.16;101036.00;5113513;28;20043;-8
2022/08/20 00:28:36;;;;;;;4.47;4.07;;;27.70;50.70;;;31.64;33.52;101041.25;5113109;28;20051;-9
2022/08/20 00:31:06;;;;;;;4.55;4.15;;;27.70;50.70;;;31.65;33.17;101032.16;5113276;28;20093;-9
2022/08/20 00:33:32;;;;;;;4.10;3.80;;;27.70;50.70;;;31.62;33.16;101035.16;5113198;28;20051;-9
2022/08/20 00:36:05;;;;;;;4.15;3.75;;;27.70;50.70;;;31.64;33.60;101041.25;5113365;28;20051;-8
2022/08/20 00:38:33;;;;;;;4.28;3.97;;;27.70;50.70;;;31.64;33.40;101036.69;5112925;28;20071;-9
2022/08/20 00:40:59;;;;;;;4.35;4.00;;;27.70;50.60;;;31.61;33.23;101038.88;5113094;28;20054;-9
2022/08/20 00:43:47;;;;;;;4.20;3.90;;;27.70;50.70;;;31.58;33.30;101042.75;5113194;28;20040;-9
2022/08/20 00:46:31;;;;;;;4.07;3.78;;;27.70;50.70;;;31.60;33.17;101039.91;5113109;28;20047;-9
2022/08/20 00:48:58;;;;;;;4.22;3.92;;;27.70;50.70;;;31.63;33.28;101048.53;5094691;28;20086;-9
2022/08/20 00:52:01;;;;;;;4.10;3.80;;;27.70;50.60;;;31.62;33.58;101041.41;5113005;28;20545;-9
2022/08/20 00:54:43;;;;;;;3.95;3.60;;;27.70;50.70;;;31.62;33.49;101043.28;5073901;28;20053;-9
2022/08/20 00:57:22;;;;;;;4.15;3.83;;;27.70;50.70;;;31.58;33.47;101034.66;5093959;28;20048;-9
2022/08/20 00:59:50;;;;;;;3.92;3.63;;;27.70;50.60;;;31.58;33.43;101030.06;5112883;28;20083;-8
2022/08/20 01:02:17;;;;;;;3.92;3.63;;;27.70;50.60;;;31.61;33.41;101031.63;5112964;28;20374;-9
2022/08/20 01:04:54;;;;;;;4.25;3.95;;;27.70;50.60;;;31.61;33.39;101036.16;5112909;28;20100;-9
2022/08/20 01:07:30;;;;;;;3.95;3.65;;;27.70;50.60;;;31.58;33.48;101032.78;5112903;28;20040;-9
2022/08/20 01:09:58;;;;;;;4.32;4.00;;;27.70;50.70;;;31.63;33.42;101034.16;5112612;28;20047;-9
2022/08/20 01:12:26;;;;;;;4.22;3.83;;;27.70;51.20;;;31.62;33.34;101041.41;5112376;28;20047;-9
2022/08/20 01:14:52;;;;;;;3.83;3.53;;;27.70;50.70;;;31.61;33.29;101036.16;5112483;28;20047;-9
2022/08/20 01:17:24;;;;;;;3.80;3.50;;;27.70;50.60;;;31.61;33.42;101036.16;5093731;28;20055;-9
2022/08/20 01:20:10;;;;;;;4.32;4.00;;;27.70;50.60;;;31.61;33.00;101039.72;5094124;28;20059;-9
2022/08/20 01:26:12;;;;;;;3.80;3.50;;;27.70;50.60;;;31.57;33.33;101038.34;5112706;28;20189;-9
2022/08/20 01:28:49;;;;;;;4.60;4.20;;;27.70;50.60;;;31.58;33.22;101049.00;5112870;28;20188;-9
2022/08/20 01:31:23;;;;;;;3.95;3.65;;;27.70;50.60;;;31.60;33.06;101050.72;5112861;28;20366;-9
2022/08/20 01:33:51;;;;;;;4.35;3.95;;;27.70;50.60;;;31.58;33.42;101050.88;5112587;28;20481;-9
2022/08/20 01:36:23;;;;;;;4.32;3.95;;;27.70;50.60;;;31.56;33.22;101048.31;5112427;28;20488;-9
2022/08/20 01:38:49;;;;;;;4.35;3.95;;;27.70;50.60;;;31.58;33.06;101061.69;5112398;28;20044;-9
2022/08/20 01:41:57;;;;;;;4.22;3.92;;;27.70;50.60;;;31.60;33.05;101053.41;5112517;28;20048;-8
2022/08/20 01:44:24;;;;;;;3.55;3.28;;;27.70;50.60;;;31.58;33.06;101059.81;5112439;28;20557;-8
2022/08/20 01:46:56;;;;;;;4.07;3.78;;;27.70;50.60;;;31.58;33.09;101058.97;5112563;28;20096;-9
2022/08/20 01:49:29;;;;;;;3.80;3.50;;;27.70;50.60;;;31.54;33.50;101055.75;5112392;28;20043;-9
2022/08/20 01:52:00;;;;;;;4.20;3.90;;;27.70;50.60;;;31.54;33.10;101061.16;5094292;28;20393;-9
2022/08/20 01:54:26;;;;;;;3.90;3.60;;;27.70;50.60;;;31.57;32.95;101058.13;5094119;28;20043;-9
2022/08/20 01:57:11;;;;;;;3.75;3.45;;;27.70;50.60;;;31.58;33.20;101058.97;5112150;28;20040;-9
2022/08/20 01:59:37;;;;;;;4.03;3.72;;;27.70;50.60;;;31.60;33.11;101058.81;5112436;28;20401;-9
2022/08/20 02:02:05;;;;;;;3.97;3.67;;;27.70;50.60;;;31.58;33.47;101053.56;5112254;28;20047;-9
2022/08/20 02:04:31;;;;;;;4.28;3.88;;;27.70;50.60;;;31.56;33.23;101056.44;5112271;28;20093;-8
2022/08/20 02:07:03;;;;;;;3.90;3.60;;;27.70;50.60;;;31.57;33.16;101062.66;5111905;28;20066;-9
2022/08/20 02:09:36;;;;;;;4.00;3.70;;;27.70;50.60;;;31.54;33.20;101058.44;5112173;28;20060;-9
2022/08/20 02:12:04;;;;;;;3.72;3.42;;;27.70;50.60;;;31.58;33.08;101067.91;5112402;28;20050;-9
2022/08/20 02:14:31;;;;;;;3.70;3.40;;;27.70;50.60;;;31.57;33.36;101063.53;5115889;28;20407;-9
2022/08/20 02:16:57;;;;;;;4.05;3.75;;;27.60;50.50;;;31.57;33.13;101065.38;5115252;28;20093;-9
2022/08/20 02:19:38;;;;;;;4.25;3.95;;;27.60;50.50;;;31.56;33.16;101075.34;5115093;28;20048;-9
2022/08/20 02:22:23;;;;;;;4.03;3.72;;;27.70;50.60;;;31.54;33.29;101065.69;5097264;28;20138;-9
2022/08/20 02:24:50;;;;;;;3.58;3.28;;;27.70;50.50;;;31.58;33.00;101065.22;5115204;28;20505;-8
2022/08/20 02:27:17;;;;;;;3.88;3.58;;;27.70;50.50;;;31.57;32.90;101063.53;5115066;28;20100;-9
2022/08/20 02:29:45;;;;;;;3.88;3.58;;;27.70;50.50;;;31.57;33.09;101071.66;5115479;28;20370;-9
2022/08/20 02:32:11;;;;;;;4.00;3.70;;;27.70;50.60;;;31.54;33.36;101057.59;5115450;28;20039;-9
2022/08/20 02:34:37;;;;;;;4.35;4.05;;;27.70;50.50;;;31.56;33.37;101069.09;5115384;28;20050;-9
2022/08/20 02:37:05;;;;;;;4.43;4.03;;;27.70;50.60;;;31.56;33.33;101071.81;5115162;28;20382;-9
2022/08/20 02:39:33;;;;;;;4.32;3.92;;;27.60;50.50;;;31.55;33.28;101073.63;5114972;28;20457;-9
2022/08/20 02:42:02;;;;;;;3.65;3.35;;;27.60;50.50;;;31.56;33.27;101069.09;5115115;28;20050;-9
2022/08/20 02:44:29;;;;;;;3.58;3.28;;;27.60;50.40;;;31.52;33.20;101065.84;5115022;28;20043;-8
2022/08/20 02:46:55;;;;;;;4.07;3.78;;;27.70;50.50;;;31.57;33.12;101068.06;5115087;28;20040;-9
2022/08/20 02:49:21;;;;;;;4.18;3.78;;;27.70;50.50;;;31.53;33.33;101062.16;5114969;28;20092;-9
2022/08/20 02:51:48;;;;;;;3.53;3.22;;;27.60;50.40;;;31.52;33.18;101052.34;5114783;28;20138;-8
2022/08/20 02:54:14;;;;;;;3.85;3.55;;;27.70;50.50;;;31.54;33.12;101061.16;5114935;28;20130;-9
2022/08/20 02:56:40;;;;;;;4.25;3.85;;;27.60;50.40;;;31.53;33.00;101059.44;5114882;28;20142;-9
2022/08/20 02:59:06;;;;;;;3.67;3.38;;;27.60;50.50;;;31.53;33.02;101061.31;5115172;28;20393;-9
2022/08/20 03:01:33;;;;;;;3.90;3.60;;;27.60;50.40;;;31.52;33.33;101057.75;5114742;28;20117;-9
2022/08/20 03:03:59;;;;;;;3.50;3.22;;;27.60;50.40;;;31.54;32.88;101063.84;5114793;28;20424;-9
2022/08/20 03:06:26;;;;;;;4.03;3.63;;;27.60;50.50;;;31.55;33.00;101068.22;5115150;28;20126;-9
2022/08/20 03:08:52;;;;;;;3.80;3.50;;;27.60;50.40;;;31.54;33.18;101066.56;5114687;28;20040;-9
2022/08/20 03:11:18;;;;;;;3.80;3.50;;;27.60;50.40;;;31.54;33.12;101069.25;5114606;28;20047;-9
2022/08/20 03:13:44;;;;;;;3.92;3.63;;;27.60;50.40;;;31.53;33.30;101064.00;5114623;28;20036;-8
2022/08/20 03:16:10;;;;;;;4.32;3.95;;;27.60;50.40;;;31.51;33.07;101064.16;5114466;28;20126;-9
2022/08/20 03:18:41;;;;;;;3.90;3.60;;;27.60;51.00;;;31.53;33.33;101064.84;5114920;28;20378;-9
2022/08/20 03:21:08;;;;;;;3.80;3.50;;;27.60;50.40;;;31.54;33.00;101060.28;5114377;28;20044;-9
2022/08/20 03:23:35;;;;;;;3.67;3.38;;;27.60;50.40;;;31.54;33.26;101058.44;5114391;28;20085;-9
2022/08/20 03:26:02;;;;;;;3.70;3.40;;;27.60;50.40;;;31.51;33.37;101050.66;5114448;28;20047;-9
2022/08/20 03:28:27;;;;;;;3.97;3.67;;;27.60;50.40;;;31.54;33.05;101061.16;5114510;28;20518;-9
2022/08/20 03:30:55;;;;;;;3.63;3.33;;;27.60;50.40;;;31.54;33.20;101066.56;5114258;28;20044;-9
2022/08/20 03:33:21;;;;;;;3.60;3.30;;;27.60;50.40;;;31.52;32.96;101063.16;5114341;28;20067;-9
2022/08/20 03:35:47;;;;;;;3.92;3.53;;;27.60;50.40;;;31.50;33.06;101061.59;5114241;28;20053;-9
2022/08/20 03:38:16;;;;;;;4.03;3.72;;;27.60;50.40;;;31.48;33.26;101053.66;5114244;28;20396;-9
2022/08/20 03:40:42;;;;;;;3.75;3.42;;;27.60;50.40;;;31.51;33.35;101063.34;5114136;28;20073;-9
2022/08/20 03:43:09;;;;;;;3.78;3.47;;;27.60;50.40;;;31.53;33.28;101075.66;5114158;28;20074;-9
2022/08/20 03:45:38;;;;;;;3.70;3.40;;;27.60;50.40;;;31.51;33.06;101076.84;5114413;28;20043;-9
2022/08/20 03:48:06;;;;;;;3.95;3.55;;;27.60;50.40;;;31.51;32.94;101083.09;5114394;28;20059;-9
2022/08/20 03:50:33;;;;;;;3.58;3.28;;;27.60;50.40;;;31.52;32.93;101086.63;5113982;28;20415;-9
2022/08/20 03:53:02;;;;;;;3.63;3.33;;;27.60;50.40;;;31.52;33.06;101083.94;5114071;28;20046;-9
2022/08/20 03:55:30;;;;;;;3.42;3.22;;;27.60;50.40;;;31.50;32.92;101092.16;5095819;28;20134;-9
2022/08/20 03:58:01;;;;;;;3.17;2.97;;;27.60;50.40;;;31.49;33.24;101086.91;5113942;28;20055;-9
2022/08/20 04:00:44;;;;;;;3.67;3.38;;;27.60;50.40;;;31.49;33.03;101095.88;5114222;28;20047;-9
2022/08/20 04:03:10;;;;;;;3.30;3.10;;;27.60;50.40;;;31.52;33.24;101097.44;5113848;28;20058;-9
2022/08/20 04:05:40;;;;;;;3.78;3.47;;;27.60;50.40;;;31.49;33.08;101101.28;5114272;28;20397;-9
2022/08/20 04:08:14;;;;;;;3.90;3.60;;;27.60;50.40;;;31.49;32.94;101104.00;5113593;28;20048;-9
2022/08/20 04:10:41;;;;;;;3.78;3.47;;;27.60;50.30;;;31.51;32.91;101104.72;5113575;28;20396;-9
2022/08/20 04:13:08;;;;;;;3.65;3.35;;;27.60;50.30;;;31.47;32.89;101099.75;5113669;28;20097;-9
2022/08/20 04:15:36;;;;;;;3.45;3.15;;;27.60;50.40;;;31.50;33.16;101108.38;5113629;28;20046;-9
2022/08/20 04:18:09;;;;;;;3.35;3.13;;;27.60;50.30;;;31.49;32.83;101113.94;5113429;28;20515;-9
2022/08/20 04:20:38;;;;;;;3.45;3.15;;;27.60;50.30;;;31.48;33.01;101112.25;5113666;28;20067;-9
2022/08/20 04:23:07;;;;;;;3.38;3.08;;;27.50;50.30;;;31.46;33.14;101101.59;5113658;28;20040;-9
2022/08/20 04:25:39;;;;;;;3.25;2.95;;;27.50;50.20;;;31.50;33.22;101119.19;5113453;28;20048;-9
2022/08/20 04:28:13;;;;;;;3.50;3.20;;;27.60;50.30;;;31.49;32.83;101117.50;5095022;28;20048;-9
2022/08/20 04:30:41;;;;;;;3.90;3.58;;;27.60;50.30;;;31.49;32.95;101117.50;5113207;28;20455;-9
2022/08/20 04:33:09;;;;;;;3.10;2.90;;;27.60;50.30;;;31.49;32.92;101113.94;5113313;28;20477;-9
2022/08/20 04:35:34;;;;;;;3.60;3.30;;;27.60;50.30;;;31.46;32.99;101109.72;5112735;28;20066;-9
2022/08/20 04:38:07;;;;;;;3.55;3.25;;;27.60;50.40;;;31.47;32.88;101114.09;5113205;28;20424;-9
2022/08/20 04:40:56;;;;;;;3.78;3.47;;;27.60;50.30;;;31.50;33.20;101116.47;5113265;28;20050;-8
2022/08/20 04:43:35;;;;;;;3.20;2.90;;;27.60;50.30;;;31.48;32.83;101113.09;5113522;28;20048;-9
2022/08/20 04:46:08;;;;;;;3.25;3.00;;;27.60;50.30;;;31.50;33.15;101118.34;5113745;28;20597;-9
2022/08/20 04:48:37;;;;;;;3.25;2.95;;;27.60;50.30;;;31.49;33.11;101112.09;5113312;28;20051;-9
2022/08/20 04:51:05;;;;;;;3.88;3.58;;;27.60;50.30;;;31.46;32.95;101100.75;5113048;28;20039;-9
2022/08/20 04:53:31;;;;;;;3.70;3.40;;;27.60;50.30;;;31.48;33.21;101113.09;5113043;28;20043;-9
2022/08/20 04:55:59;;;;;;;3.22;2.97;;;27.50;50.20;;;31.49;33.06;101122.03;5113544;28;20044;-9
2022/08/20 04:58:38;;;;;;;3.55;3.25;;;27.60;50.20;;;31.49;32.95;101117.50;5112967;28;20122;-9
2022/08/20 05:01:08;;;;;;;3.10;2.90;;;27.60;50.20;;;31.51;32.70;101122.78;5113286;28;20047;-9
2022/08/20 05:03:37;;;;;;;3.30;3.00;;;27.60;50.20;;;31.50;32.84;101121.03;5113085;28;20043;-9
2022/08/20 05:06:05;;;;;;;3.50;3.20;;;27.60;50.70;;;31.52;33.15;101127.16;5113269;28;20039;-9
2022/08/20 05:08:32;;;;;;;3.10;2.90;;;27.60;50.20;;;31.49;33.00;101120.22;5112954;28;20043;-9
2022/08/20 05:10:58;;;;;;;3.63;3.33;;;27.60;50.20;;;31.50;32.96;101118.34;5112764;28;20054;-9
2022/08/20 05:13:25;;;;;;;3.53;3.22;;;27.60;50.10;;;31.51;32.92;101122.78;5112808;28;20404;-9
2022/08/20 05:15:52;;;;;;;3.38;3.15;;;27.60;50.20;;;31.50;32.96;101116.47;5112727;28;20048;-9
2022/08/20 05:18:23;;;;;;;3.00;2.80;;;27.60;50.10;;;31.51;32.87;101120.09;5094267;28;20132;-9
2022/08/20 05:20:49;;;;;;;3.65;3.35;;;27.60;50.10;;;31.50;32.99;101118.34;5112655;28;20472;-9
2022/08/20 05:23:17;;;;;;;3.03;2.83;;;27.60;50.10;;;31.53;33.09;101127.00;5112750;28;20126;-9
2022/08/20 05:25:48;;;;;;;3.10;2.90;;;27.60;50.10;;;31.53;33.10;101126.16;5112766;28;20103;-9
2022/08/20 05:28:24;;;;;;;3.15;2.92;;;27.60;50.10;;;31.54;32.73;101125.16;5113239;28;20043;-9
2022/08/20 05:30:52;;;;;;;3.25;2.95;;;27.60;50.00;;;31.52;32.84;101114.50;5113136;28;20052;-9
2022/08/20 05:33:22;;;;;;;3.40;3.10;;;27.60;50.00;;;31.53;32.78;101120.75;5094421;28;20097;-9
2022/08/20 05:35:51;;;;;;;2.92;2.72;;;27.70;50.00;;;31.56;32.81;101118.59;5112558;28;20082;-9
2022/08/20 05:38:20;;;;;;;3.42;3.13;;;27.70;50.00;;;31.53;32.69;101112.66;5112762;28;20176;-9
2022/08/20 05:40:47;;;;;;;2.95;2.75;;;27.70;50.00;;;31.56;32.88;101126.69;5112507;28;20180;-9
2022/08/20 05:43:14;;;;;;;3.75;3.05;;;27.70;50.00;;;31.57;33.08;101124.84;5112488;28;20043;-9
2022/08/20 05:45:42;;;;;;;3.28;2.97;;;27.70;49.90;;;31.56;32.85;101126.69;5094374;28;20092;-9
2022/08/20 05:48:15;;;;;;;3.30;3.10;;;27.70;49.90;;;31.56;32.77;101125.84;5113593;28;20051;-9
2022/08/20 05:50:44;;;;;;;3.00;2.80;;;27.70;49.90;;;31.61;32.93;101128.06;5116277;28;20522;-9
2022/08/20 05:53:10;;;;;;;3.38;3.08;;;27.70;49.90;;;31.58;32.64;101132.78;5115906;28;20047;-9
2022/08/20 05:55:36;;;;;;;2.97;2.78;;;27.70;49.90;;;31.60;33.05;101135.34;5115895;28;20051;-9
2022/08/20 05:58:06;;;;;;;3.03;2.83;;;27.80;49.90;;;31.57;32.82;101136.50;5115719;28;20050;-9
2022/08/20 06:00:34;;;;;;;2.95;2.75;;;27.70;49.80;;;31.63;32.52;101134.19;5114532;28;20065;-9
2022/08/20 06:05:46;;;;;;;3.30;3.10;;;27.70;49.80;;;31.62;32.91;101135.19;5115717;28;20058;-9
2022/08/20 06:08:13;;;;;;;2.78;2.58;;;27.80;49.80;;;31.66;32.87;101139.25;5115571;28;20405;-9
2022/08/20 06:10:40;;;;;;;2.92;2.72;;;27.80;49.80;;;31.66;32.78;101133.84;5115896;28;20055;-9
2022/08/20 06:13:06;;;;;;;2.85;2.65;;;27.80;49.80;;;31.65;32.89;101133.00;5115595;28;20500;-9
2022/08/20 06:15:34;;;;;;;3.35;3.10;;;27.80;49.80;;;31.66;32.66;101134.69;5080951;28;20039;-9
2022/08/20 06:18:06;;;;;;;3.33;3.03;;;27.80;49.80;;;31.65;32.62;101133.00;5115466;28;20044;-9
2022/08/20 06:20:37;;;;;;;3.10;2.90;;;27.70;49.70;;;31.62;32.53;101129.78;5097504;28;20051;-9
2022/08/20 06:23:04;;;;;;;;;;;27.70;49.80;;;31.77;32.61;101129.00;5115915;28;20051;-9
2022/08/20 06:25:33;;;;;;;3.00;2.80;;;27.80;49.90;;;31.69;32.68;101134.38;5115364;28;19915;-9
2022/08/20 06:28:02;;;;;;;2.92;2.72;;;27.70;49.80;;;31.67;32.88;101133.69;5115325;28;20504;-9
2022/08/20 06:30:29;;;;;;;2.97;2.78;;;27.80;49.80;;;31.67;32.53;101138.25;5115087;28;20050;-9
2022/08/20 06:32:54;;;;;;;2.90;2.70;;;27.80;49.80;;;31.66;32.87;101139.25;5115287;28;20131;-9
2022/08/20 06:35:23;;;;;;;2.92;2.72;;;27.70;49.70;;;31.65;32.79;101137.56;5115531;28;20131;-9
2022/08/20 06:37:49;;;;;;;2.88;2.53;;;27.80;49.80;;;31.65;32.69;101132.16;5115442;28;20546;-9
2022/08/20 06:40:23;;;;;;;3.33;3.03;;;27.80;49.80;;;31.64;32.67;101133.16;5114928;28;20047;-9
2022/08/20 06:42:51;;;;;;;3.40;3.17;;;27.80;49.70;;;31.68;32.46;101137.25;5115162;28;20073;-9
2022/08/20 06:45:28;;;;;;;3.10;2.90;;;27.80;49.70;;;31.64;32.88;101133.16;5096556;28;20401;-9
2022/08/20 06:47:57;;;;;;;3.03;2.80;;;27.80;49.70;;;31.68;32.84;101139.94;5115032;28;20048;-9
2022/08/20 06:50:37;;;;;;;2.83;2.63;;;27.80;49.70;;;31.66;32.80;101134.69;5113089;28;20051;-9
2022/08/20 06:53:05;;;;;;;2.95;2.75;;;27.80;49.70;;;31.72;32.68;101138.59;5114987;28;20047;-9
2022/08/20 06:55:31;;;;;;;2.90;2.70;;;27.90;49.60;;;31.76;32.34;101145.41;5114958;28;20101;-9
2022/08/20 06:58:01;;;;;;;3.20;2.90;;;27.90;49.50;;;31.76;32.34;101148.13;5114484;28;20047;-8
2022/08/20 07:00:30;;;;;;;2.92;2.72;;;27.90;49.40;;;31.81;32.80;101148.47;5114913;28;20404;-9
2022/08/20 07:02:59;;;;;;;3.03;2.80;;;28.00;49.40;;;31.83;32.22;101156.44;5114975;28;20130;-8
2022/08/20 07:05:34;;;;;;;2.72;2.53;;;28.00;49.30;;;31.82;32.57;101144.75;5114825;28;20071;-9
2022/08/20 07:08:00;;;;;;;3.47;3.17;;;28.00;49.20;;;31.88;32.25;101148.69;5114670;28;20130;-9
2022/08/20 07:10:29;;;;;;;2.80;2.60;;;28.10;49.20;;;31.89;32.45;101150.38;5114879;28;20078;-9
2022/08/20 07:12:58;;;;;;;2.72;2.53;;;28.10;49.10;;;31.91;32.09;101151.91;5114738;28;20055;-9
2022/08/20 07:15:26;;;;;;;2.90;2.70;;;28.10;49.00;;;31.93;32.10;101155.28;5115018;28;20050;-9
2022/08/20 07:17:59;;;;;;;2.90;2.65;;;28.10;49.00;;;31.94;32.43;101159.72;5114455;28;20047;-10
2022/08/20 07:20:28;;;;;;;2.58;2.38;;;28.10;49.00;;;31.99;32.38;101171.88;5114868;28;20050;-8
2022/08/20 07:22:55;;;;;;;2.88;2.67;;;28.20;49.00;;;31.97;32.20;101166.63;5114470;28;20492;-9
2022/08/20 07:25:23;;;;;;;2.88;2.67;;;28.20;49.00;;;32.02;32.01;101175.09;5114412;28;20040;-9
2022/08/20 07:27:50;;;;;;;2.80;2.60;;;28.20;48.90;;;32.01;32.18;101168.03;5096477;28;20405;-9
2022/08/20 07:33:19;;;;;;;2.85;2.65;;;28.20;48.90;;;32.06;32.02;101171.13;5097319;28;20053;-9
2022/08/20 07:35:47;;;;;;;3.15;2.85;;;28.20;48.80;;;32.04;32.25;101172.25;5114648;28;20047;-9
2022/08/20 07:38:23;;;;;;;2.42;2.33;;;28.20;48.80;;;32.04;31.83;101173.09;5113983;28;20534;-9
2022/08/20 07:41:06;;;;;;;2.80;2.60;;;28.20;48.80;;;32.06;31.96;101170.22;5114196;28;20043;-9
2022/08/20 07:43:32;;;;;;;2.75;2.55;;;28.30;48.80;;;32.15;32.13;101181.97;5114186;28;20040;-9
2022/08/20 07:46:01;;;;;;;2.60;2.40;;;28.30;48.70;;;32.17;32.17;101179.97;5114156;28;20048;-9
2022/08/20 07:48:29;;;;;;;2.70;2.50;;;28.40;48.60;;;32.24;31.72;101189.13;5113836;28;20048;-9
2022/08/20 07:50:57;;;;;;;3.00;2.70;;;28.50;48.40;;;32.27;31.72;101184.22;5114102;28;20039;-9
2022/08/20 07:53:25;;;;;;;2.92;2.72;;;28.50;48.30;;;32.34;31.99;101187.13;5114274;28;20043;-9
2022/08/20 07:55:51;;;;;;;2.50;2.30;;;28.60;48.20;;;32.40;31.47;101185.63;5114391;28;20446;-9
2022/08/20 07:58:20;;;;;;;2.85;2.65;;;28.70;48.10;;;32.45;31.40;101194.13;5113731;28;20047;-9
2022/08/20 08:00:46;;;;;;;2.70;2.50;;;28.80;48.00;;;32.49;31.69;101192.75;5113867;28;20058;-9
2022/08/20 08:03:12;;;;;;;2.58;2.38;;;28.80;47.90;;;32.51;31.38;101185.31;5113865;28;20036;-9
2022/08/20 08:05:42;;;;;;;2.92;2.63;;;28.90;47.80;;;32.56;31.31;101196.53;5113705;28;20477;-9
2022/08/20 08:08:16;;;;;;;2.92;2.70;;;28.90;47.80;;;32.64;31.32;101207.38;5095339;28;20048;-9
2022/08/20 08:10:45;;;;;;;2.78;2.53;;;28.90;47.80;;;32.66;31.50;101199.97;5094590;28;20044;-9
2022/08/20 08:13:27;;;;;;;2.47;2.28;;;28.90;47.70;;;32.67;31.25;101208.94;5113699;28;20540;-8
2022/08/20 08:15:57;;;;;;;2.30;2.20;;;28.90;47.80;;;32.66;31.07;101216.22;5113699;28;20048;-9
2022/08/20 08:18:28;;;;;;;2.47;2.28;;;28.90;47.80;;;32.64;31.41;101212.81;5093578;28;20047;-9
2022/08/20 08:20:54;;;;;;;2.42;2.22;;;28.80;47.80;;;32.66;31.46;101216.22;5095570;28;20378;-9
2022/08/20 08:23:22;;;;;;;2.55;2.35;;;28.80;47.90;;;32.63;31.38;101213.00;5113559;28;20047;-9
2022/08/20 08:25:51;;;;;;;2.47;2.28;;;28.80;47.90;;;32.65;31.22;101217.22;5113407;28;20039;-9
2022/08/20 08:28:18;;;;;;;2.70;2.50;;;28.80;47.90;;;32.66;31.20;101215.34;5112928;28;20052;-9
2022/08/20 08:30:46;;;;;;;2.45;2.25;;;28.80;47.80;;;32.65;31.39;101209.09;5113388;28;20048;-9
2022/08/20 08:33:27;;;;;;;2.13;2.03;;;28.80;47.80;;;32.67;31.45;101215.19;5113668;28;20043;-9
2022/08/20 08:36:13;;;;;;;2.33;2.13;;;28.80;47.80;;;32.68;31.50;101208.78;5113417;28;20047;-9
2022/08/20 08:38:42;;;;;;;2.42;2.22;;;28.80;47.70;;;32.68;31.08;101203.34;5113165;28;20108;-9
2022/08/20 08:41:35;;;;;;;2.20;2.10;;;28.80;47.80;;;32.67;31.45;101204.34;5113300;28;20109;-9
2022/08/20 08:44:08;;;;;;;2.28;2.17;;;28.80;47.90;;;32.67;31.37;101198.09;5113264;28;20447;-9
2022/08/20 08:46:47;;;;;;;2.42;2.22;;;28.80;47.80;;;32.67;31.25;101211.63;5095129;28;20055;-9
2022/08/20 08:49:20;;;;;;;2.63;2.42;;;28.80;47.80;;;32.61;30.86;101194.22;5110343;28;20385;-9
2022/08/20 08:52:22;;;;;;;2.53;2.33;;;28.80;47.90;;;32.63;31.11;101204.88;5113286;28;20053;-9
2022/08/20 08:54:57;;;;;;;2.60;2.40;;;28.80;47.90;;;32.64;30.97;101211.97;5113118;28;20054;-9
2022/08/20 08:57:23;;;;;;;2.58;2.38;;;28.70;47.90;;;32.64;30.91;101209.25;5094783;28;20106;-9
2022/08/20 09:00:06;;;;;;;2.45;2.25;;;28.70;47.90;;;32.64;31.39;101225.50;5113068;28;20059;-9
2022/08/20 09:02:37;;;;;;;2.35;2.17;;;28.70;47.90;;;32.64;31.20;101217.38;5093691;28;20055;-9
2022/08/20 09:05:14;;;;;;;2.50;2.30;;;28.70;48.00;;;32.60;31.00;101216.00;5093625;28;20052;-9
2022/08/20 09:07:44;;;;;;;2.45;2.25;;;28.70;48.00;;;32.63;31.05;101221.13;5112708;28;20054;-9
2022/08/20 09:10:10;;;;;;;2.42;2.25;;;28.70;48.00;;;32.60;31.27;101214.13;5094083;28;20474;-8
2022/08/20 09:12:36;;;;;;;2.75;2.55;;;28.70;48.00;;;32.62;30.95;101222.94;5112649;28;20047;-9
2022/08/20 09:15:02;;;;;;;2.30;2.10;;;28.70;48.00;;;32.62;31.10;101227.53;5112677;28;20503;-9
2022/08/20 09:17:28;;;;;;;2.13;2.03;;;28.70;48.00;;;32.64;31.39;101234.47;5112433;28;20108;-9
2022/08/20 09:19:54;;;;;;;1.85;1.75;;;28.70;47.90;;;32.61;31.31;101221.28;5113055;28;20054;-9
2022/08/20 09:22:24;;;;;;;2.10;2.00;;;28.70;47.90;;;32.60;31.32;101224.94;5114625;28;20056;-9
2022/08/20 09:24:50;;;;;;;2.17;2.07;;;28.70;48.00;;;32.64;31.38;101228.22;5096509;28;20100;-9
2022/08/20 09:27:17;;;;;;;2.17;2.08;;;28.70;48.00;;;32.61;30.88;101228.50;5116259;28;20039;-9
2022/08/20 09:29:43;;;;;;;2.08;1.98;;;28.70;48.00;;;32.63;31.41;101230.06;5116315;28;20050;-9
2022/08/20 09:32:15;;;;;;;2.60;2.40;;;28.70;48.00;;;32.60;31.34;101232.25;5116188;28;20047;-9
2022/08/20 09:34:54;;;;;;;2.38;2.17;;;28.70;48.00;;;32.58;31.36;101229.69;5116236;28;20066;-9
2022/08/20 09:37:21;;;;;;;2.15;2.05;;;28.70;48.10;;;32.61;31.13;101233.91;5116102;28;20044;-9
2022/08/20 09:39:48;;;;;;;2.00;1.90;;;28.70;48.10;;;32.56;31.24;101223.59;5116200;28;20044;-9
2022/08/20 09:42:23;;;;;;;2.42;2.22;;;28.70;48.10;;;32.60;31.15;101235.78;5116239;28;20056;-9
2022/08/20 09:44:49;;;;;;;1.90;1.80;;;28.70;48.10;;;32.60;31.40;101224.94;5098187;28;20499;-9
2022/08/20 09:47:16;;;;;;;2.28;2.17;;;28.70;48.10;;;32.60;31.40;101226.81;5115843;28;20101;-8
2022/08/20 09:49:43;;;;;;;2.13;2.03;;;28.70;48.10;;;32.63;31.21;101221.97;5116021;28;20534;-8
2022/08/20 09:52:21;;;;;;;2.00;1.90;;;28.70;48.00;;;32.61;31.04;101218.56;5115817;28;20101;-9
2022/08/20 09:54:48;;;;;;;2.20;2.10;;;28.70;48.00;;;32.63;30.99;101227.38;5116228;28;20051;-9
2022/08/20 09:57:14;;;;;;;2.85;2.65;;;28.70;48.00;;;32.60;30.91;101232.25;5096319;28;20051;-9
2022/08/20 09:59:41;;;;;;;1.92;1.83;;;28.70;48.10;;;32.59;31.19;101225.94;5115826;28;20090;-9
2022/08/20 10:02:06;;;;;;;2.30;2.20;;;28.70;48.10;;;32.60;31.26;101226.81;5097485;28;20058;-9
2022/08/20 10:04:32;;;;;;;2.55;2.30;;;28.70;48.10;;;32.59;31.08;101231.38;5115784;28;20048;-9
2022/08/20 10:06:58;;;;;;;2.28;2.08;;;28.70;48.10;;;32.61;31.08;101223.97;5115726;28;20059;-9
2022/08/20 10:09:25;;;;;;;2.53;2.33;;;28.70;48.00;;;32.64;31.29;101230.91;5115935;28;20047;-9
2022/08/20 10:11:50;;;;;;;2.15;2.03;;;28.70;48.00;;;32.59;31.17;101222.41;5115482;28;20493;-9
2022/08/20 10:14:16;;;;;;;2.22;2.13;;;28.70;47.90;;;32.64;31.22;101230.91;5115538;28;20044;-9
2022/08/20 10:16:42;;;;;;;2.05;1.95;;;28.70;47.90;;;32.63;31.32;101230.06;5115420;28;20193;-9
2022/08/20 10:19:08;;;;;;;2.45;2.28;;;28.70;47.90;;;32.62;31.35;101231.06;5115470;28;20397;-9
2022/08/20 10:21:34;;;;;;;2.25;2.05;;;28.70;48.00;;;32.63;31.11;101232.78;5115923;28;20466;-9
2022/08/20 10:24:00;;;;;;;2.40;2.20;;;28.70;48.00;;;32.60;31.40;101224.13;5115432;28;20048;-9
2022/08/20 10:26:26;;;;;;;1.80;1.70;;;28.70;48.00;;;32.63;30.96;101234.66;5115380;28;20122;-9
2022/08/20 10:28:52;;;;;;;2.08;1.98;;;28.70;47.90;;;32.61;31.04;101226.69;5115628;28;20044;-9
2022/08/20 10:31:18;;;;;;;2.15;2.05;;;28.70;48.00;;;32.62;30.80;101230.25;5115574;28;20130;-8
2022/08/20 10:33:44;;;;;;;2.20;2.05;;;28.70;48.00;;;32.59;31.01;101230.53;5114489;28;20405;-9
2022/08/20 10:36:15;;;;;;;2.10;2.00;;;28.70;48.00;;;32.62;31.31;101244.63;5115217;28;20051;-9
2022/08/20 10:38:42;;;;;;;2.00;1.90;;;28.70;47.90;;;32.60;30.81;101241.19;5115432;28;20044;-9
2022/08/20 10:41:08;;;;;;;1.98;1.88;;;28.70;48.00;;;32.60;30.95;101240.34;5115226;28;20052;-9